Time;durP1;ratioP1;P1;durP2;ratioP2;P2;SDS_P1;SDS_P2;PMS_P1;PMS_P2;Temp;Humidity;BMP_temperature;BMP_pressure;BME280_temperature;BME280_humidity;BME280_pressure;Samples;Min_cycle;Max_cycle;Signal;HPM_P1;HPM_P2
2021/03/01 00:00:03;;;;;;;10.70;6.28;;;4.40;99.90;;;;;;5076712;28;20791;-73
2021/03/01 00:02:30;;;;;;;12.75;6.60;;;4.40;99.90;;;;;;5077006;28;20257;-73
2021/03/01 00:04:56;;;;;;;9.10;5.45;;;4.40;99.90;;;;;;5076565;28;20771;-73
2021/03/01 00:07:23;;;;;;;10.68;5.80;;;4.40;99.90;;;;;;5076763;28;20291;-73
2021/03/01 00:09:49;;;;;;;10.93;6.00;;;4.30;99.90;;;;;;5077271;28;20584;-73
2021/03/01 00:12:15;;;;;;;11.90;6.40;;;4.30;99.90;;;;;;5077497;28;20206;-73
2021/03/01 00:14:42;;;;;;;8.95;5.50;;;4.20;99.90;;;;;;5076934;28;20199;-73
2021/03/01 00:17:08;;;;;;;13.18;5.68;;;4.30;99.90;;;;;;5076317;28;20210;-72
2021/03/01 00:19:35;;;;;;;9.38;6.28;;;4.30;99.90;;;;;;5077387;28;20641;-73
2021/03/01 00:22:02;;;;;;;13.65;6.20;;;4.30;99.90;;;;;;5077165;28;20225;-73
2021/03/01 00:24:28;;;;;;;10.57;6.60;;;4.30;99.90;;;;;;5077227;28;20545;-73
2021/03/01 00:26:54;;;;;;;12.80;7.03;;;4.30;99.90;;;;;;5076594;28;20210;-72
2021/03/01 00:29:20;;;;;;;11.75;6.75;;;4.30;99.90;;;;;;5076108;28;20231;-73
2021/03/01 00:31:47;;;;;;;13.30;6.22;;;4.30;99.90;;;;;;5076593;28;20229;-72
2021/03/01 00:34:13;;;;;;;13.20;7.30;;;4.30;99.90;;;;;;5077012;28;20252;-73
2021/03/01 00:36:40;;;;;;;17.30;7.30;;;4.30;99.90;;;;;;5076488;28;20241;-73
2021/03/01 00:39:06;;;;;;;12.75;7.60;;;4.30;99.90;;;;;;5077171;28;20286;-73
2021/03/01 00:41:33;;;;;;;12.45;6.50;;;4.30;99.90;;;;;;5076608;28;20268;-73
2021/03/01 00:44:00;;;;;;;13.02;6.97;;;4.30;99.90;;;;;;5076512;28;20843;-74
2021/03/01 00:46:26;;;;;;;11.38;7.35;;;4.30;99.90;;;;;;5076223;28;20305;-72
2021/03/01 00:48:53;;;;;;;16.60;7.22;;;4.30;99.90;;;;;;5076412;28;20718;-73
2021/03/01 00:51:19;;;;;;;14.63;7.05;;;4.30;99.90;;;;;;5076555;28;20223;-73
2021/03/01 00:53:46;;;;;;;9.52;6.35;;;4.40;99.90;;;;;;5076067;28;20293;-73
2021/03/01 00:56:13;;;;;;;10.73;6.65;;;4.40;99.90;;;;;;5076260;28;20256;-72
2021/03/01 00:58:39;;;;;;;11.65;7.03;;;4.30;99.90;;;;;;5075880;28;20226;-72
2021/03/01 01:01:05;;;;;;;12.45;6.63;;;4.30;99.90;;;;;;5075648;28;20777;-73
2021/03/01 01:03:32;;;;;;;12.80;7.25;;;4.20;99.90;;;;;;5076781;28;20727;-73
2021/03/01 01:05:58;;;;;;;9.80;6.22;;;4.20;99.90;;;;;;5076330;28;20279;-72
2021/03/01 01:08:24;;;;;;;12.05;6.55;;;4.10;99.90;;;;;;5076438;28;20314;-74
2021/03/01 01:10:51;;;;;;;14.10;7.82;;;4.20;99.90;;;;;;5076173;28;20712;-73
2021/03/01 01:13:18;;;;;;;14.57;7.20;;;4.20;99.90;;;;;;5076987;28;20317;-73
2021/03/01 01:15:44;;;;;;;9.73;6.43;;;4.10;99.90;;;;;;5076641;28;20213;-74
2021/03/01 01:18:11;;;;;;;12.73;6.65;;;4.10;99.90;;;;;;5076853;28;20229;-73
2021/03/01 01:20:37;;;;;;;12.90;7.13;;;4.10;99.90;;;;;;5076584;28;20244;-73
2021/03/01 01:23:04;;;;;;;14.70;6.22;;;4.00;99.90;;;;;;5076405;28;20210;-73
2021/03/01 01:25:30;;;;;;;17.23;7.32;;;4.10;99.90;;;;;;5076611;28;20202;-74
2021/03/01 01:27:58;;;;;;;12.15;7.03;;;4.00;99.90;;;;;;5076206;28;20207;-73
2021/03/01 01:30:26;;;;;;;13.25;6.38;;;4.00;99.90;;;;;;5075609;28;20343;-73
2021/03/01 01:32:52;;;;;;;12.40;6.30;;;4.00;99.90;;;;;;5076090;28;20206;-73
2021/03/01 01:35:20;;;;;;;13.60;7.05;;;3.90;99.90;;;;;;5076308;28;20297;-73
2021/03/01 01:37:47;;;;;;;13.73;6.70;;;3.90;99.90;;;;;;5075047;28;20207;-72
2021/03/01 01:40:16;;;;;;;14.80;6.78;;;3.90;99.90;;;;;;5074724;28;20218;-73
2021/03/01 01:42:43;;;;;;;13.45;8.25;;;3.90;99.90;;;;;;5074940;28;20290;-72
2021/03/01 01:45:12;;;;;;;16.08;7.25;;;3.90;99.90;;;;;;5075398;28;20244;-73
2021/03/01 01:47:39;;;;;;;17.17;7.22;;;3.80;99.90;;;;;;5074715;28;20206;-72
2021/03/01 01:50:07;;;;;;;9.55;6.50;;;3.80;99.90;;;;;;5074758;28;20230;-73
2021/03/01 01:52:33;;;;;;;12.20;6.50;;;3.60;99.90;;;;;;5074607;28;20732;-72
2021/03/01 01:55:01;;;;;;;14.00;7.03;;;3.60;99.90;;;;;;5074748;28;20199;-73
2021/03/01 01:57:28;;;;;;;15.82;7.07;;;3.50;99.90;;;;;;5075017;28;20255;-72
2021/03/01 01:59:54;;;;;;;10.55;6.25;;;3.40;99.90;;;;;;5075261;28;20286;-73
2021/03/01 02:02:22;;;;;;;13.73;6.57;;;3.30;99.90;;;;;;5075184;28;20205;-73
2021/03/01 02:04:52;;;;;;;11.82;6.00;;;3.30;99.90;;;;;;5074850;28;20202;-73
2021/03/01 02:07:25;;;;;;;16.83;6.88;;;3.30;99.90;;;;;;5074370;28;20254;-72
2021/03/01 02:10:04;;;;;;;10.85;5.70;;;3.30;99.90;;;;;;5074456;28;20595;-73
2021/03/01 02:12:42;;;;;;;13.80;6.88;;;3.20;99.90;;;;;;5074479;28;20206;-73
2021/03/01 02:15:14;;;;;;;12.90;6.20;;;3.30;99.90;;;;;;5074243;28;20422;-73
2021/03/01 02:17:41;;;;;;;9.60;6.13;;;3.30;99.90;;;;;;5073933;28;20235;-73
2021/03/01 02:20:11;;;;;;;10.60;6.20;;;3.30;99.90;;;;;;5074737;28;20218;-73
2021/03/01 02:22:38;;;;;;;14.98;6.63;;;3.20;99.90;;;;;;5074135;28;20294;-73
2021/03/01 02:25:07;;;;;;;8.30;5.43;;;3.30;99.90;;;;;;5074729;28;20213;-73
2021/03/01 02:27:39;;;;;;;14.27;7.07;;;3.20;99.90;;;;;;5074406;28;20202;-72
2021/03/01 02:30:11;;;;;;;12.38;6.55;;;3.20;99.90;;;;;;5074606;28;20657;-72
2021/03/01 02:32:38;;;;;;;11.07;5.75;;;3.20;99.90;;;;;;5075069;28;20199;-73
2021/03/01 02:35:07;;;;;;;9.80;6.30;;;3.20;99.90;;;;;;5074930;28;20202;-73
2021/03/01 02:37:36;;;;;;;12.25;6.97;;;3.20;99.90;;;;;;5074827;28;20305;-72
2021/03/01 02:40:05;;;;;;;11.52;6.45;;;3.30;99.90;;;;;;5074802;28;20223;-73
2021/03/01 02:42:34;;;;;;;11.23;5.90;;;3.20;99.90;;;;;;5073827;28;20199;-72
2021/03/01 02:45:01;;;;;;;9.60;5.43;;;3.30;99.90;;;;;;5073483;28;20218;-72
2021/03/01 02:47:28;;;;;;;10.07;5.60;;;3.30;99.90;;;;;;5074265;28;20290;-72
2021/03/01 02:49:56;;;;;;;11.77;6.32;;;3.30;99.90;;;;;;5073723;28;20238;-72
2021/03/01 02:52:25;;;;;;;11.75;6.18;;;3.30;99.90;;;;;;5074834;28;20198;-73
2021/03/01 02:54:52;;;;;;;13.98;5.68;;;3.30;99.90;;;;;;5073920;28;20207;-73
2021/03/01 02:57:21;;;;;;;13.43;7.03;;;3.30;99.90;;;;;;5073646;28;20741;-72
2021/03/01 02:59:49;;;;;;;9.35;5.75;;;3.30;99.90;;;;;;5074146;28;20245;-73
2021/03/01 03:02:18;;;;;;;8.93;6.07;;;3.20;99.90;;;;;;5074134;28;20202;-73
2021/03/01 03:04:46;;;;;;;10.57;5.93;;;3.20;99.90;;;;;;5073582;28;20198;-73
2021/03/01 03:07:14;;;;;;;11.43;5.55;;;3.10;99.90;;;;;;5073794;28;20259;-72
2021/03/01 03:09:45;;;;;;;7.30;4.68;;;3.20;99.90;;;;;;5073196;28;20227;-72
2021/03/01 03:12:14;;;;;;;10.57;5.95;;;3.20;99.90;;;;;;5073964;28;20617;-72
2021/03/01 03:14:43;;;;;;;10.63;6.60;;;3.20;99.90;;;;;;5074508;28;20272;-72
2021/03/01 03:17:11;;;;;;;13.77;7.20;;;3.20;99.90;;;;;;5074828;28;20209;-73
2021/03/01 03:19:39;;;;;;;11.52;6.45;;;3.20;99.90;;;;;;5074280;28;20700;-73
2021/03/01 03:22:06;;;;;;;11.55;5.85;;;3.30;99.90;;;;;;5074692;28;20293;-73
2021/03/01 03:24:32;;;;;;;11.07;5.75;;;3.10;99.90;;;;;;5074813;28;20336;-73
2021/03/01 03:26:58;;;;;;;12.27;6.50;;;3.00;99.90;;;;;;5073896;28;20202;-72
2021/03/01 03:29:25;;;;;;;12.25;5.95;;;3.10;99.90;;;;;;5073396;28;20313;-73
2021/03/01 03:31:52;;;;;;;11.50;5.80;;;3.10;99.90;;;;;;5073922;28;20340;-72
2021/03/01 03:34:20;;;;;;;10.90;5.00;;;3.00;99.90;;;;;;5073400;28;20767;-72
2021/03/01 03:36:53;;;;;;;9.65;6.47;;;2.90;99.90;;;;;;5073352;28;20301;-72
2021/03/01 03:39:20;;;;;;;12.38;6.28;;;2.90;99.90;;;;;;5073287;28;20225;-73
2021/03/01 03:41:48;;;;;;;11.82;5.70;;;2.90;99.90;;;;;;5073342;28;20233;-73
2021/03/01 03:44:17;;;;;;;14.75;6.03;;;2.90;99.90;;;;;;5073387;28;20245;-73
2021/03/01 03:46:43;;;;;;;12.02;5.78;;;2.70;99.90;;;;;;5073283;28;20664;-72
2021/03/01 03:49:11;;;;;;;9.13;6.70;;;2.80;99.90;;;;;;5073454;28;20314;-73
2021/03/01 03:51:39;;;;;;;12.95;5.32;;;2.90;99.90;;;;;;5073740;28;20790;-73
2021/03/01 03:54:13;;;;;;;9.25;5.38;;;2.90;99.90;;;;;;5073812;28;20287;-72
2021/03/01 03:56:42;;;;;;;11.57;6.28;;;3.00;99.90;;;;;;5073475;28;20197;-72
2021/03/01 03:59:11;;;;;;;9.80;6.15;;;3.00;99.90;;;;;;5073565;28;20289;-72
2021/03/01 04:01:39;;;;;;;9.40;5.45;;;3.00;99.90;;;;;;5073454;28;20214;-73
2021/03/01 04:04:08;;;;;;;13.45;5.93;;;3.00;99.90;;;;;;5072850;28;20203;-73
2021/03/01 04:06:38;;;;;;;10.75;5.18;;;2.90;99.90;;;;;;5077511;28;20187;-72
2021/03/01 04:09:07;;;;;;;12.60;5.93;;;2.90;99.90;;;;;;5077599;28;20207;-73
2021/03/01 04:11:34;;;;;;;11.82;5.60;;;2.90;99.90;;;;;;5077758;28;20210;-73
2021/03/01 04:14:01;;;;;;;11.88;6.57;;;2.90;99.90;;;;;;5077387;28;20199;-73
2021/03/01 04:16:29;;;;;;;11.15;6.53;;;2.90;99.90;;;;;;5076529;28;20260;-72
2021/03/01 04:18:59;;;;;;;11.68;5.68;;;2.90;99.90;;;;;;5077158;28;20256;-73
2021/03/01 04:21:28;;;;;;;9.88;5.90;;;2.90;99.90;;;;;;5077541;28;20309;-72
2021/03/01 04:23:57;;;;;;;7.88;5.80;;;2.90;99.90;;;;;;5077255;28;20210;-73
2021/03/01 04:26:24;;;;;;;8.30;5.00;;;2.90;99.90;;;;;;5077230;28;20680;-72
2021/03/01 04:28:53;;;;;;;11.02;5.50;;;2.90;99.90;;;;;;5077611;28;20250;-73
2021/03/01 04:31:20;;;;;;;10.55;6.22;;;2.90;99.90;;;;;;5077430;28;20234;-72
2021/03/01 04:33:48;;;;;;;11.25;6.13;;;2.90;99.90;;;;;;5076634;28;20541;-72
2021/03/01 04:36:15;;;;;;;10.52;5.85;;;2.80;99.90;;;;;;5076524;28;20289;-72
2021/03/01 04:38:41;;;;;;;10.63;5.40;;;2.80;99.90;;;;;;5076152;28;20205;-72
2021/03/01 04:41:10;;;;;;;9.55;4.95;;;2.70;99.90;;;;;;5076998;28;20223;-73
2021/03/01 04:43:38;;;;;;;12.18;7.28;;;2.70;99.90;;;;;;5077188;28;20294;-72
2021/03/01 04:46:05;;;;;;;10.77;5.53;;;2.70;99.90;;;;;;5077145;28;20243;-72
2021/03/01 04:48:32;;;;;;;8.52;5.72;;;2.80;99.90;;;;;;5078035;28;20263;-73
2021/03/01 04:51:01;;;;;;;10.50;5.20;;;2.70;99.90;;;;;;5076970;28;20226;-73
2021/03/01 04:53:28;;;;;;;10.38;6.25;;;2.70;99.90;;;;;;5077219;28;20214;-73
2021/03/01 04:55:56;;;;;;;8.93;5.63;;;2.70;99.90;;;;;;5076724;28;20209;-72
2021/03/01 04:58:23;;;;;;;11.88;5.00;;;2.70;99.90;;;;;;5077032;28;20203;-73
2021/03/01 05:00:51;;;;;;;15.73;7.10;;;2.70;99.90;;;;;;5076876;28;20227;-73
2021/03/01 05:03:18;;;;;;;12.05;6.05;;;2.70;99.90;;;;;;5076705;28;20213;-72
2021/03/01 05:05:44;;;;;;;10.95;6.45;;;2.70;99.90;;;;;;5076845;28;20198;-73
2021/03/01 05:08:13;;;;;;;11.70;6.15;;;2.80;99.90;;;;;;5076256;28;20199;-72
2021/03/01 05:10:40;;;;;;;9.90;5.78;;;2.80;99.90;;;;;;5076664;28;20229;-73
2021/03/01 05:13:07;;;;;;;7.57;5.75;;;2.80;99.90;;;;;;5077004;28;20270;-73
2021/03/01 05:15:34;;;;;;;8.57;5.07;;;2.80;99.90;;;;;;5076576;28;20275;-73
2021/03/01 05:18:01;;;;;;;12.25;6.65;;;2.80;99.90;;;;;;5076857;28;20203;-72
2021/03/01 05:20:27;;;;;;;11.18;5.72;;;2.80;99.90;;;;;;5077276;28;20602;-73
2021/03/01 05:22:53;;;;;;;12.77;5.97;;;2.80;99.90;;;;;;5076846;28;20217;-73
2021/03/01 05:25:20;;;;;;;11.60;5.63;;;2.70;99.90;;;;;;5076492;28;20207;-73
2021/03/01 05:27:46;;;;;;;10.32;5.55;;;2.70;99.90;;;;;;5076640;28;20613;-72
2021/03/01 05:30:13;;;;;;;14.10;6.10;;;2.70;99.90;;;;;;5076722;28;20321;-73
2021/03/01 05:32:40;;;;;;;10.27;5.60;;;2.70;99.90;;;;;;5076351;28;20722;-73
2021/03/01 05:35:08;;;;;;;8.52;5.03;;;2.80;99.90;;;;;;5076538;28;20293;-72
2021/03/01 05:37:35;;;;;;;12.25;5.72;;;2.70;99.90;;;;;;5075716;28;20202;-72
2021/03/01 05:40:01;;;;;;;10.35;6.35;;;2.60;99.90;;;;;;5076130;28;20701;-73
2021/03/01 05:42:28;;;;;;;10.32;5.50;;;2.60;99.90;;;;;;5076552;28;20291;-73
2021/03/01 05:44:55;;;;;;;10.70;5.63;;;2.60;99.90;;;;;;5076441;28;20218;-73
2021/03/01 05:47:22;;;;;;;12.00;5.57;;;2.50;99.90;;;;;;5076078;28;20210;-73
2021/03/01 05:49:50;;;;;;;8.15;5.25;;;2.40;99.90;;;;;;5076274;28;20348;-73
2021/03/01 05:52:17;;;;;;;13.38;5.18;;;2.50;99.90;;;;;;5076325;28;20213;-73
2021/03/01 05:54:46;;;;;;;9.60;4.63;;;2.40;99.90;;;;;;5076384;28;20207;-73
2021/03/01 05:57:13;;;;;;;10.10;5.55;;;2.40;99.90;;;;;;5075524;28;20222;-72
2021/03/01 05:59:40;;;;;;;11.77;5.88;;;2.40;99.90;;;;;;5075668;28;20259;-73
2021/03/01 06:02:07;;;;;;;11.25;5.63;;;2.30;99.90;;;;;;5076058;28;20203;-73
2021/03/01 06:04:33;;;;;;;9.65;5.25;;;2.40;99.90;;;;;;5075769;28;20209;-73
2021/03/01 06:07:00;;;;;;;12.02;5.82;;;2.30;99.90;;;;;;5075892;28;20274;-72
2021/03/01 06:09:27;;;;;;;12.20;5.80;;;2.00;99.90;;;;;;5075521;28;20689;-73
2021/03/01 06:11:55;;;;;;;12.90;6.75;;;2.10;99.90;;;;;;5075679;28;20203;-73
2021/03/01 06:14:21;;;;;;;10.90;6.70;;;2.10;99.90;;;;;;5075438;28;20203;-73
2021/03/01 06:17:09;;;;;;;10.93;5.63;;;2.00;99.90;;;;;;5075122;28;20255;-72
2021/03/01 06:19:46;;;;;;;10.25;5.82;;;2.20;99.90;;;;;;5075457;28;20218;-73
2021/03/01 06:22:14;;;;;;;9.82;5.25;;;2.10;99.90;;;;;;5074993;28;20202;-73
2021/03/01 06:24:41;;;;;;;12.77;5.70;;;2.20;99.90;;;;;;5075492;28;20298;-73
2021/03/01 06:27:09;;;;;;;9.73;5.78;;;2.30;99.90;;;;;;5074586;28;20298;-72
2021/03/01 06:29:37;;;;;;;10.80;6.78;;;2.30;99.90;;;;;;5074426;28;20226;-73
2021/03/01 06:32:11;;;;;;;17.65;6.03;;;2.40;99.90;;;;;;5075284;28;20204;-73
2021/03/01 06:34:37;;;;;;;10.43;5.18;;;2.50;99.90;;;;;;5075208;28;20210;-73
2021/03/01 06:37:09;;;;;;;10.88;5.95;;;2.50;99.90;;;;;;5075217;28;20549;-72
2021/03/01 06:39:38;;;;;;;8.35;4.93;;;2.60;99.90;;;;;;5075290;28;20634;-73
2021/03/01 06:42:22;;;;;;;9.65;6.38;;;2.60;99.90;;;;;;5075246;28;20590;-73
2021/03/01 06:45:04;;;;;;;13.23;5.82;;;2.60;99.90;;;;;;5075012;28;20217;-72
2021/03/01 06:47:43;;;;;;;14.85;6.55;;;2.60;99.90;;;;;;5074975;28;20289;-72
2021/03/01 06:50:34;;;;;;;9.45;6.05;;;2.50;99.90;;;;;;5074742;28;20271;-73
2021/03/01 06:53:03;;;;;;;12.18;4.82;;;2.50;99.90;;;;;;5074589;28;20626;-73
2021/03/01 06:55:31;;;;;;;8.50;5.88;;;2.50;99.90;;;;;;5074944;28;20683;-73
2021/03/01 06:58:14;;;;;;;13.40;6.55;;;2.60;99.90;;;;;;5074951;28;20209;-73
2021/03/01 07:00:40;;;;;;;15.43;7.15;;;2.60;99.90;;;;;;5075030;28;20310;-73
2021/03/01 07:03:19;;;;;;;10.88;7.05;;;2.40;99.90;;;;;;5074721;28;20229;-73
2021/03/01 07:05:49;;;;;;;14.77;6.57;;;2.20;99.90;;;;;;5075015;28;20191;-73
2021/03/01 07:08:30;;;;;;;16.30;6.60;;;2.30;99.90;;;;;;5074794;28;20237;-73
2021/03/01 07:10:57;;;;;;;13.45;7.10;;;2.30;99.90;;;;;;5074921;28;20320;-73
2021/03/01 07:13:27;;;;;;;13.10;7.35;;;2.10;99.90;;;;;;5074901;28;20206;-73
2021/03/01 07:15:53;;;;;;;12.48;7.32;;;2.10;99.90;;;;;;5074994;28;20202;-72
2021/03/01 07:18:21;;;;;;;15.57;7.28;;;2.20;99.90;;;;;;5074478;28;20293;-73
2021/03/01 07:20:48;;;;;;;14.77;7.05;;;2.00;99.90;;;;;;5074627;28;20226;-73
2021/03/01 07:23:15;;;;;;;18.05;8.02;;;2.10;99.90;;;;;;5074566;28;20203;-73
2021/03/01 07:25:43;;;;;;;15.55;7.50;;;2.20;99.90;;;;;;5074665;28;20213;-73
2021/03/01 07:28:13;;;;;;;13.65;7.50;;;2.10;99.90;;;;;;5074659;28;20266;-72
2021/03/01 07:30:43;;;;;;;12.43;7.75;;;2.20;99.90;;;;;;5074505;28;20234;-73
2021/03/01 07:33:11;;;;;;;13.02;7.05;;;2.40;99.90;;;;;;5074698;28;20568;-74
2021/03/01 07:35:38;;;;;;;15.73;7.80;;;2.50;99.90;;;;;;5074239;28;20228;-73
2021/03/01 07:38:05;;;;;;;16.23;7.53;;;2.60;99.90;;;;;;5074203;28;20673;-73
2021/03/01 07:40:31;;;;;;;11.63;7.68;;;2.70;99.90;;;;;;5077375;28;20580;-73
2021/03/01 07:42:58;;;;;;;15.65;8.00;;;2.80;99.90;;;;;;5078365;28;20226;-73
2021/03/01 07:45:25;;;;;;;24.98;8.15;;;2.90;99.90;;;;;;5078199;28;20210;-73
2021/03/01 07:47:52;;;;;;;14.38;6.95;;;3.00;99.90;;;;;;5078238;28;20571;-73
2021/03/01 07:50:33;;;;;;;15.95;7.90;;;3.00;99.90;;;;;;5078306;28;20238;-73
2021/03/01 07:52:59;;;;;;;17.52;7.78;;;3.10;99.90;;;;;;5078561;28;20240;-73
2021/03/01 07:55:26;;;;;;;17.10;9.70;;;3.00;99.90;;;;;;5078321;28;20213;-73
2021/03/01 07:58:04;;;;;;;13.80;7.40;;;3.10;99.90;;;;;;5078161;28;20241;-72
2021/03/01 08:00:33;;;;;;;13.98;6.50;;;3.10;99.90;;;;;;5078281;28;20218;-74
2021/03/01 08:03:01;;;;;;;14.82;7.00;;;3.00;99.90;;;;;;5078314;28;20257;-73
2021/03/01 08:05:29;;;;;;;15.07;8.00;;;3.10;99.90;;;;;;5077898;28;20202;-74
2021/03/01 08:07:56;;;;;;;15.65;8.30;;;3.20;99.90;;;;;;5078077;28;20286;-72
2021/03/01 08:10:43;;;;;;;15.10;8.65;;;3.20;99.90;;;;;;5077866;28;20234;-72
2021/03/01 08:13:09;;;;;;;15.25;8.13;;;3.30;99.90;;;;;;5077683;28;20266;-73
2021/03/01 08:15:39;;;;;;;14.75;8.48;;;3.40;99.90;;;;;;5077976;28;20199;-73
2021/03/01 08:18:07;;;;;;;14.77;8.35;;;3.40;99.90;;;;;;5077706;28;20195;-72
2021/03/01 08:20:40;;;;;;;13.52;8.95;;;3.40;99.90;;;;;;5077989;28;20302;-74
2021/03/01 08:23:18;;;;;;;17.80;8.70;;;3.40;99.90;;;;;;5077773;28;20210;-73
2021/03/01 08:25:56;;;;;;;14.88;8.90;;;3.50;99.90;;;;;;5077747;28;20294;-74
2021/03/01 08:28:44;;;;;;;14.80;8.75;;;3.50;99.90;;;;;;5078090;28;20245;-74
2021/03/01 08:31:31;;;;;;;18.67;9.60;;;3.30;99.90;;;;;;5077911;28;20305;-73
2021/03/01 08:34:37;;;;;;;18.77;10.18;;;3.20;99.90;;;;;;5077513;28;20298;-73
2021/03/01 08:37:05;;;;;;;23.13;10.20;;;3.10;99.90;;;;;;5077193;28;20293;-72
2021/03/01 08:39:55;;;;;;;24.02;11.02;;;3.10;99.90;;;;;;5077748;28;20214;-73
2021/03/01 08:42:44;;;;;;;17.85;11.00;;;3.10;99.90;;;;;;5077590;28;20297;-73
2021/03/01 08:45:11;;;;;;;19.08;11.00;;;3.10;99.90;;;;;;5076956;28;20668;-73
2021/03/01 08:47:48;;;;;;;16.95;10.35;;;3.10;99.90;;;;;;5076965;28;20234;-72
2021/03/01 08:50:14;;;;;;;18.60;10.02;;;3.10;99.90;;;;;;5077138;28;20247;-74
2021/03/01 08:52:47;;;;;;;18.45;10.88;;;3.20;99.90;;;;;;5077003;28;20294;-73
2021/03/01 08:55:16;;;;;;;15.75;9.93;;;3.40;99.90;;;;;;5077389;28;20661;-73
2021/03/01 08:57:58;;;;;;;17.25;10.82;;;3.60;99.90;;;;;;5077025;28;20732;-72
2021/03/01 09:00:26;;;;;;;24.38;10.98;;;3.70;99.90;;;;;;5077115;28;20225;-73
2021/03/01 09:03:11;;;;;;;19.88;10.95;;;3.90;99.90;;;;;;5077335;28;20203;-73
2021/03/01 09:05:38;;;;;;;23.40;12.82;;;4.00;99.90;;;;;;5077213;28;20633;-73
2021/03/01 09:08:05;;;;;;;22.02;10.00;;;4.00;99.90;;;;;;5076604;28;20209;-72
2021/03/01 09:10:36;;;;;;;18.00;9.20;;;4.10;99.90;;;;;;5077091;28;20233;-73
2021/03/01 09:13:02;;;;;;;18.85;10.43;;;4.20;99.90;;;;;;5076613;28;20293;-73
2021/03/01 09:15:29;;;;;;;14.32;8.50;;;4.30;99.90;;;;;;5077158;28;20293;-73
2021/03/01 09:17:55;;;;;;;16.60;8.43;;;4.30;99.90;;;;;;5076561;28;20289;-72
2021/03/01 09:20:23;;;;;;;17.85;8.90;;;4.40;99.90;;;;;;5076533;28;20223;-73
2021/03/01 09:22:49;;;;;;;14.77;8.75;;;4.40;99.90;;;;;;5076805;28;20202;-73
2021/03/01 09:25:26;;;;;;;14.85;8.60;;;4.50;99.90;;;;;;5076580;28;20289;-73
2021/03/01 09:27:53;;;;;;;15.95;8.63;;;4.60;99.90;;;;;;5076366;28;20203;-73
2021/03/01 09:30:20;;;;;;;16.17;8.93;;;4.70;99.90;;;;;;5076075;28;20262;-73
2021/03/01 09:32:55;;;;;;;15.68;9.18;;;4.80;99.90;;;;;;5076541;28;20206;-73
2021/03/01 09:35:24;;;;;;;16.70;7.57;;;4.80;99.90;;;;;;5075965;28;20187;-73
2021/03/01 09:37:51;;;;;;;14.15;8.27;;;5.00;99.90;;;;;;5075833;28;20289;-72
2021/03/01 09:40:19;;;;;;;12.63;8.10;;;5.10;99.90;;;;;;5075414;28;20215;-73
2021/03/01 09:42:51;;;;;;;12.70;7.32;;;5.30;99.90;;;;;;5075629;28;20202;-73
2021/03/01 09:45:18;;;;;;;11.10;6.72;;;5.40;99.90;;;;;;5075067;28;20305;-74
2021/03/01 09:47:46;;;;;;;13.27;8.25;;;5.50;99.90;;;;;;5075363;28;20195;-72
2021/03/01 09:50:13;;;;;;;12.30;6.97;;;5.60;99.90;;;;;;5075297;28;20233;-73
2021/03/01 09:52:41;;;;;;;14.48;7.53;;;5.70;99.90;;;;;;5075354;28;20617;-73
2021/03/01 09:55:09;;;;;;;11.88;6.72;;;5.80;99.90;;;;;;5075308;28;20290;-73
2021/03/01 09:57:35;;;;;;;10.18;6.25;;;5.90;99.90;;;;;;5075000;28;20543;-72
2021/03/01 10:00:20;;;;;;;12.63;7.35;;;6.10;99.90;;;;;;5075221;28;20651;-73
2021/03/01 10:02:57;;;;;;;14.77;7.07;;;6.30;99.90;;;;;;5074091;28;20213;-73
2021/03/01 10:05:24;;;;;;;15.65;6.90;;;6.50;99.90;;;;;;5074816;28;20214;-73
2021/03/01 10:08:02;;;;;;;11.00;6.50;;;6.60;99.90;;;;;;5074766;28;20225;-73
2021/03/01 10:10:37;;;;;;;9.98;5.95;;;6.80;99.90;;;;;;5074614;28;20230;-73
2021/03/01 10:13:03;;;;;;;12.88;6.88;;;6.90;99.90;;;;;;5075073;28;20569;-73
2021/03/01 10:15:41;;;;;;;10.88;6.78;;;7.10;98.90;;;;;;5074886;28;20271;-73
2021/03/01 10:18:08;;;;;;;9.55;6.25;;;7.30;98.60;;;;;;5074561;28;20620;-73
2021/03/01 10:20:46;;;;;;;15.20;7.30;;;7.50;97.00;;;;;;5075160;28;20218;-73
2021/03/01 10:23:25;;;;;;;10.40;5.70;;;7.90;97.20;;;;;;5075549;28;20190;-73
2021/03/01 10:26:01;;;;;;;11.13;6.60;;;8.20;96.30;;;;;;5075712;28;20259;-73
2021/03/01 10:28:33;;;;;;;10.95;7.13;;;8.40;96.80;;;;;;5075271;28;20279;-74
2021/03/01 10:31:00;;;;;;;13.85;7.15;;;8.70;94.60;;;;;;5075074;28;20313;-73
2021/03/01 10:33:26;;;;;;;12.18;6.40;;;8.90;94.20;;;;;;5075446;28;20207;-74
2021/03/01 10:36:10;;;;;;;9.40;6.15;;;9.20;93.20;;;;;;5075161;28;20240;-74
2021/03/01 10:38:56;;;;;;;10.68;6.82;;;9.60;92.10;;;;;;5075526;28;20301;-74
2021/03/01 10:41:24;;;;;;;10.60;6.70;;;10.20;87.90;;;;;;5073799;28;20254;-74
2021/03/01 10:43:59;;;;;;;8.65;5.78;;;10.60;85.10;;;;;;5074070;28;20202;-74
2021/03/01 10:46:30;;;;;;;7.57;5.95;;;11.00;82.30;;;;;;5074487;28;20202;-73
2021/03/01 10:48:56;;;;;;;11.18;6.90;;;11.40;81.50;;;;;;5074580;28;20677;-74
2021/03/01 10:51:22;;;;;;;10.05;6.78;;;11.90;80.30;;;;;;5074221;28;20310;-73
2021/03/01 10:53:49;;;;;;;12.60;6.32;;;12.00;75.90;;;;;;5074514;28;20203;-73
2021/03/01 10:56:16;;;;;;;10.88;6.65;;;11.60;73.80;;;;;;5074315;28;20206;-73
2021/03/01 10:58:42;;;;;;;11.00;7.00;;;10.80;74.30;;;;;;5074557;28;20668;-73
2021/03/01 11:01:09;;;;;;;9.10;6.40;;;10.60;80.20;;;;;;5074461;28;20301;-73
2021/03/01 11:03:35;;;;;;;9.35;5.97;;;10.30;77.30;;;;;;5074594;28;20228;-73
2021/03/01 11:06:01;;;;;;;11.00;6.40;;;10.20;80.60;;;;;;5074231;28;20569;-73
2021/03/01 11:08:28;;;;;;;10.98;6.43;;;10.40;80.40;;;;;;5074207;28;20289;-73
2021/03/01 11:10:54;;;;;;;10.63;7.10;;;10.30;79.40;;;;;;5074158;28;20318;-73
2021/03/01 11:13:21;;;;;;;9.80;6.50;;;10.30;80.00;;;;;;5074211;28;20209;-73
2021/03/01 11:15:48;;;;;;;9.90;6.43;;;10.50;82.10;;;;;;5077817;28;20195;-74
2021/03/01 11:18:14;;;;;;;9.00;5.95;;;11.00;78.30;;;;;;5078351;28;20293;-73
2021/03/01 11:20:40;;;;;;;8.07;6.00;;;11.40;76.60;;;;;;5078205;28;20215;-73
2021/03/01 11:23:07;;;;;;;9.85;6.63;;;11.80;73.80;;;;;;5078592;28;20264;-74
2021/03/01 11:25:34;;;;;;;11.52;7.38;;;12.80;71.50;;;;;;5078611;28;20289;-74
2021/03/01 11:28:01;;;;;;;10.02;5.85;;;14.30;68.70;;;;;;5077604;28;20334;-73
2021/03/01 11:30:29;;;;;;;9.15;5.50;;;14.50;62.70;;;;;;5078010;28;20334;-74
2021/03/01 11:32:55;;;;;;;11.30;6.40;;;15.00;61.20;;;;;;5078333;28;20211;-74
2021/03/01 11:35:22;;;;;;;8.40;5.75;;;14.80;58.80;;;;;;5078240;28;20670;-72
2021/03/01 11:37:48;;;;;;;9.55;5.43;;;14.60;58.60;;;;;;5078440;28;20213;-71
2021/03/01 11:40:15;;;;;;;7.90;5.30;;;14.50;56.70;;;;;;5078757;28;20215;-71
2021/03/01 11:42:41;;;;;;;7.03;4.80;;;14.40;55.90;;;;;;5077631;28;20679;-71
2021/03/01 11:45:08;;;;;;;6.97;4.93;;;14.70;56.10;;;;;;5077717;28;20219;-72
2021/03/01 11:47:35;;;;;;;8.05;4.82;;;14.90;55.20;;;;;;5077900;28;20199;-72
2021/03/01 11:50:02;;;;;;;9.50;5.53;;;14.40;56.20;;;;;;5077715;28;20237;-72
2021/03/01 11:52:28;;;;;;;7.80;4.82;;;14.30;55.10;;;;;;5077797;28;20203;-72
2021/03/01 11:54:55;;;;;;;9.52;4.55;;;14.20;55.40;;;;;;5077881;28;20651;-72
2021/03/01 11:57:21;;;;;;;7.28;4.25;;;14.30;54.40;;;;;;5077440;28;20657;-71
2021/03/01 11:59:50;;;;;;;5.93;4.15;;;14.10;54.50;;;;;;5077817;28;20313;-72
2021/03/01 12:02:16;;;;;;;4.88;3.53;;;14.00;54.70;;;;;;5077549;28;20217;-72
2021/03/01 12:04:43;;;;;;;5.60;4.00;;;13.90;53.30;;;;;;5077612;28;20207;-72
2021/03/01 12:07:10;;;;;;;7.00;4.32;;;14.10;53.60;;;;;;5077509;28;20310;-71
2021/03/01 12:09:36;;;;;;;6.43;4.07;;;14.50;52.50;;;;;;5077193;28;20365;-72
2021/03/01 12:12:02;;;;;;;6.70;3.90;;;15.10;51.80;;;;;;5077090;28;20205;-72
2021/03/01 12:14:29;;;;;;;5.78;4.38;;;15.90;50.60;;;;;;5075755;28;20629;-72
2021/03/01 12:16:55;;;;;;;5.63;3.90;;;16.30;48.50;;;;;;5076892;28;20201;-72
2021/03/01 12:19:21;;;;;;;5.85;4.03;;;16.60;46.90;;;;;;5076729;28;20669;-72
2021/03/01 12:21:49;;;;;;;6.45;3.63;;;16.80;46.70;;;;;;5076965;28;20748;-72
2021/03/01 12:24:15;;;;;;;5.55;3.88;;;17.60;46.20;;;;;;5077155;28;20256;-72
2021/03/01 12:26:41;;;;;;;4.37;3.70;;;18.60;44.70;;;;;;5075908;28;20599;-72
2021/03/01 12:29:08;;;;;;;4.27;3.03;;;18.70;44.90;;;;;;5076967;28;20812;-72
2021/03/01 12:31:35;;;;;;;3.30;2.80;;;19.60;43.30;;;;;;5076956;28;20474;-72
2021/03/01 12:34:02;;;;;;;2.30;2.10;;;20.30;39.80;;;;;;5076736;28;20453;-72
2021/03/01 12:36:29;;;;;;;2.57;2.37;;;20.80;39.40;;;;;;5076713;28;20448;-72
2021/03/01 12:38:56;;;;;;;3.03;2.77;;;21.10;37.20;;;;;;5076941;28;20803;-73
2021/03/01 12:41:23;;;;;;;2.57;2.37;;;21.40;36.70;;;;;;5076836;28;20982;-72
2021/03/01 12:43:49;;;;;;;3.10;2.67;;;21.60;37.30;;;;;;5076804;28;20448;-73
2021/03/01 12:46:16;;;;;;;3.73;2.90;;;21.40;36.30;;;;;;5076630;28;20480;-72
2021/03/01 12:48:42;;;;;;;3.70;2.57;;;21.20;36.20;;;;;;5076606;28;20449;-73
2021/03/01 12:51:09;;;;;;;2.60;2.40;;;20.90;36.30;;;;;;5076175;28;21057;-72
2021/03/01 12:53:35;;;;;;;2.97;2.40;;;20.50;36.60;;;;;;5076393;28;21011;-72
2021/03/01 12:56:02;;;;;;;2.73;2.40;;;20.10;36.30;;;;;;5076663;28;20540;-71